sensor_id;sensor_type;location;lat;lon;timestamp;P1;durP1;ratioP1;P2;durP2;ratioP2
12480;SDS011;6305;48.398;11.762;2022-10-22T00:02:31;14.40;;;8.38;;
12480;SDS011;6305;48.398;11.762;2022-10-22T00:05:33;16.50;;;9.07;;
12480;SDS011;6305;48.398;11.762;2022-10-22T00:08:55;18.23;;;8.73;;
12480;SDS011;6305;48.398;11.762;2022-10-22T00:11:40;12.82;;;8.02;;
12480;SDS011;6305;48.398;11.762;2022-10-22T00:14:10;12.20;;;7.78;;
12480;SDS011;6305;48.398;11.762;2022-10-22T00:16:57;13.38;;;7.30;;
12480;SDS011;6305;48.398;11.762;2022-10-22T00:22:18;9.65;;;6.07;;
12480;SDS011;6305;48.398;11.762;2022-10-22T00:25:27;9.68;;;5.97;;
12480;SDS011;6305;48.398;11.762;2022-10-22T00:28:07;11.68;;;5.50;;
12480;SDS011;6305;48.398;11.762;2022-10-22T00:33:36;8.10;;;4.88;;
12480;SDS011;6305;48.398;11.762;2022-10-22T00:36:20;10.68;;;5.80;;
12480;SDS011;6305;48.398;11.762;2022-10-22T00:38:58;10.57;;;5.63;;
12480;SDS011;6305;48.398;11.762;2022-10-22T00:41:53;10.23;;;5.93;;
12480;SDS011;6305;48.398;11.762;2022-10-22T00:45:03;12.43;;;6.43;;
12480;SDS011;6305;48.398;11.762;2022-10-22T00:47:53;12.70;;;6.43;;
12480;SDS011;6305;48.398;11.762;2022-10-22T00:50:40;11.85;;;6.80;;
12480;SDS011;6305;48.398;11.762;2022-10-22T00:53:27;12.23;;;6.40;;
12480;SDS011;6305;48.398;11.762;2022-10-22T00:56:18;12.50;;;6.63;;
12480;SDS011;6305;48.398;11.762;2022-10-22T00:58:58;10.70;;;5.57;;
12480;SDS011;6305;48.398;11.762;2022-10-22T01:01:40;6.03;;;3.33;;
12480;SDS011;6305;48.398;11.762;2022-10-22T01:04:09;5.95;;;3.83;;
12480;SDS011;6305;48.398;11.762;2022-10-22T01:06:36;6.65;;;2.78;;
12480;SDS011;6305;48.398;11.762;2022-10-22T01:09:08;7.05;;;2.67;;
12480;SDS011;6305;48.398;11.762;2022-10-22T01:11:44;6.82;;;2.88;;
12480;SDS011;6305;48.398;11.762;2022-10-22T01:14:17;4.18;;;2.63;;
12480;SDS011;6305;48.398;11.762;2022-10-22T01:16:52;5.22;;;2.80;;
12480;SDS011;6305;48.398;11.762;2022-10-22T01:19:28;6.47;;;2.80;;
12480;SDS011;6305;48.398;11.762;2022-10-22T01:22:12;7.28;;;2.47;;
12480;SDS011;6305;48.398;11.762;2022-10-22T01:24:54;4.70;;;2.70;;
12480;SDS011;6305;48.398;11.762;2022-10-22T01:27:25;5.47;;;3.15;;
12480;SDS011;6305;48.398;11.762;2022-10-22T01:30:02;4.88;;;2.80;;
12480;SDS011;6305;48.398;11.762;2022-10-22T01:32:32;3.55;;;2.75;;
12480;SDS011;6305;48.398;11.762;2022-10-22T01:35:02;5.60;;;3.00;;
12480;SDS011;6305;48.398;11.762;2022-10-22T01:37:32;6.95;;;3.45;;
12480;SDS011;6305;48.398;11.762;2022-10-22T01:40:06;5.97;;;3.00;;
12480;SDS011;6305;48.398;11.762;2022-10-22T01:42:34;8.02;;;3.38;;
12480;SDS011;6305;48.398;11.762;2022-10-22T01:45:04;9.32;;;3.55;;
12480;SDS011;6305;48.398;11.762;2022-10-22T01:47:38;7.47;;;3.50;;
12480;SDS011;6305;48.398;11.762;2022-10-22T01:53:16;6.03;;;3.33;;
12480;SDS011;6305;48.398;11.762;2022-10-22T01:55:52;6.05;;;3.50;;
12480;SDS011;6305;48.398;11.762;2022-10-22T01:58:33;6.65;;;3.25;;
12480;SDS011;6305;48.398;11.762;2022-10-22T02:01:11;5.68;;;3.25;;
12480;SDS011;6305;48.398;11.762;2022-10-22T02:03:44;5.38;;;3.63;;
12480;SDS011;6305;48.398;11.762;2022-10-22T02:06:16;7.07;;;3.55;;
12480;SDS011;6305;48.398;11.762;2022-10-22T02:08:45;7.18;;;4.70;;
12480;SDS011;6305;48.398;11.762;2022-10-22T02:11:14;7.18;;;4.28;;
12480;SDS011;6305;48.398;11.762;2022-10-22T02:13:43;7.68;;;4.40;;
12480;SDS011;6305;48.398;11.762;2022-10-22T02:16:14;7.32;;;4.10;;
12480;SDS011;6305;48.398;11.762;2022-10-22T02:18:46;7.35;;;4.55;;
12480;SDS011;6305;48.398;11.762;2022-10-22T02:21:17;7.43;;;4.32;;
12480;SDS011;6305;48.398;11.762;2022-10-22T02:23:44;7.45;;;4.53;;
12480;SDS011;6305;48.398;11.762;2022-10-22T02:26:14;9.30;;;4.90;;
12480;SDS011;6305;48.398;11.762;2022-10-22T02:28:49;9.35;;;5.28;;
12480;SDS011;6305;48.398;11.762;2022-10-22T02:31:25;9.68;;;4.97;;
12480;SDS011;6305;48.398;11.762;2022-10-22T02:33:54;8.40;;;5.22;;
12480;SDS011;6305;48.398;11.762;2022-10-22T02:36:24;8.80;;;4.85;;
12480;SDS011;6305;48.398;11.762;2022-10-22T02:38:51;9.85;;;5.00;;
12480;SDS011;6305;48.398;11.762;2022-10-22T02:41:20;8.05;;;5.10;;
12480;SDS011;6305;48.398;11.762;2022-10-22T02:43:48;8.85;;;5.25;;
12480;SDS011;6305;48.398;11.762;2022-10-22T02:46:16;11.68;;;5.10;;
12480;SDS011;6305;48.398;11.762;2022-10-22T02:48:44;9.93;;;4.97;;
12480;SDS011;6305;48.398;11.762;2022-10-22T02:51:12;9.75;;;5.45;;
12480;SDS011;6305;48.398;11.762;2022-10-22T02:53:39;9.60;;;5.30;;
12480;SDS011;6305;48.398;11.762;2022-10-22T02:56:06;11.35;;;5.43;;
12480;SDS011;6305;48.398;11.762;2022-10-22T02:58:33;11.70;;;4.93;;
12480;SDS011;6305;48.398;11.762;2022-10-22T03:01:00;9.50;;;5.18;;
12480;SDS011;6305;48.398;11.762;2022-10-22T03:03:27;9.73;;;5.30;;
12480;SDS011;6305;48.398;11.762;2022-10-22T03:05:55;10.48;;;5.43;;
12480;SDS011;6305;48.398;11.762;2022-10-22T03:08:21;10.40;;;4.90;;
12480;SDS011;6305;48.398;11.762;2022-10-22T03:10:48;9.57;;;5.30;;
12480;SDS011;6305;48.398;11.762;2022-10-22T03:13:15;8.65;;;4.88;;
12480;SDS011;6305;48.398;11.762;2022-10-22T03:15:42;9.45;;;5.20;;
12480;SDS011;6305;48.398;11.762;2022-10-22T03:18:09;9.02;;;4.82;;
12480;SDS011;6305;48.398;11.762;2022-10-22T03:20:35;7.80;;;4.82;;
12480;SDS011;6305;48.398;11.762;2022-10-22T03:23:04;9.98;;;4.78;;
12480;SDS011;6305;48.398;11.762;2022-10-22T03:25:31;8.57;;;4.85;;
12480;SDS011;6305;48.398;11.762;2022-10-22T03:27:59;9.95;;;4.60;;
12480;SDS011;6305;48.398;11.762;2022-10-22T03:30:29;7.85;;;4.30;;
12480;SDS011;6305;48.398;11.762;2022-10-22T03:32:56;8.90;;;4.70;;
12480;SDS011;6305;48.398;11.762;2022-10-22T03:35:23;8.27;;;4.30;;
12480;SDS011;6305;48.398;11.762;2022-10-22T03:37:53;7.75;;;4.95;;
12480;SDS011;6305;48.398;11.762;2022-10-22T03:40:21;10.30;;;5.13;;
12480;SDS011;6305;48.398;11.762;2022-10-22T03:42:48;9.98;;;4.78;;
12480;SDS011;6305;48.398;11.762;2022-10-22T03:45:15;8.05;;;4.43;;
12480;SDS011;6305;48.398;11.762;2022-10-22T03:47:42;9.27;;;4.30;;
12480;SDS011;6305;48.398;11.762;2022-10-22T03:50:09;10.52;;;4.88;;
12480;SDS011;6305;48.398;11.762;2022-10-22T03:52:37;8.63;;;4.53;;
12480;SDS011;6305;48.398;11.762;2022-10-22T03:55:07;10.52;;;4.22;;
12480;SDS011;6305;48.398;11.762;2022-10-22T03:57:36;9.35;;;4.30;;
12480;SDS011;6305;48.398;11.762;2022-10-22T04:00:03;9.65;;;4.20;;
12480;SDS011;6305;48.398;11.762;2022-10-22T04:02:31;8.85;;;4.60;;
12480;SDS011;6305;48.398;11.762;2022-10-22T04:04:58;10.52;;;4.53;;
12480;SDS011;6305;48.398;11.762;2022-10-22T04:07:25;9.45;;;4.38;;
12480;SDS011;6305;48.398;11.762;2022-10-22T04:09:51;7.40;;;3.78;;
12480;SDS011;6305;48.398;11.762;2022-10-22T04:12:18;7.80;;;4.60;;
12480;SDS011;6305;48.398;11.762;2022-10-22T04:14:46;8.60;;;4.45;;
12480;SDS011;6305;48.398;11.762;2022-10-22T04:17:13;7.75;;;3.97;;
12480;SDS011;6305;48.398;11.762;2022-10-22T04:19:40;7.57;;;4.05;;
12480;SDS011;6305;48.398;11.762;2022-10-22T04:22:07;8.85;;;4.10;;
12480;SDS011;6305;48.398;11.762;2022-10-22T04:24:34;7.53;;;3.92;;
12480;SDS011;6305;48.398;11.762;2022-10-22T04:27:04;7.15;;;3.78;;
12480;SDS011;6305;48.398;11.762;2022-10-22T04:29:30;8.63;;;3.72;;
12480;SDS011;6305;48.398;11.762;2022-10-22T04:31:59;5.82;;;3.50;;
12480;SDS011;6305;48.398;11.762;2022-10-22T04:34:26;6.53;;;3.70;;
12480;SDS011;6305;48.398;11.762;2022-10-22T04:36:53;8.30;;;3.90;;
12480;SDS011;6305;48.398;11.762;2022-10-22T04:39:20;6.82;;;3.88;;
12480;SDS011;6305;48.398;11.762;2022-10-22T04:41:47;9.00;;;4.35;;
12480;SDS011;6305;48.398;11.762;2022-10-22T04:44:14;7.30;;;4.25;;
12480;SDS011;6305;48.398;11.762;2022-10-22T04:46:43;6.93;;;4.55;;
12480;SDS011;6305;48.398;11.762;2022-10-22T04:49:12;8.85;;;4.65;;
12480;SDS011;6305;48.398;11.762;2022-10-22T04:51:38;7.72;;;4.60;;
12480;SDS011;6305;48.398;11.762;2022-10-22T04:54:05;8.85;;;4.38;;
12480;SDS011;6305;48.398;11.762;2022-10-22T04:56:32;7.50;;;4.43;;
12480;SDS011;6305;48.398;11.762;2022-10-22T04:58:59;8.40;;;4.05;;
12480;SDS011;6305;48.398;11.762;2022-10-22T05:01:28;6.85;;;4.20;;
12480;SDS011;6305;48.398;11.762;2022-10-22T05:03:57;9.05;;;4.40;;
12480;SDS011;6305;48.398;11.762;2022-10-22T05:06:26;8.25;;;4.65;;
12480;SDS011;6305;48.398;11.762;2022-10-22T05:08:54;7.07;;;4.20;;
12480;SDS011;6305;48.398;11.762;2022-10-22T05:11:26;6.35;;;3.90;;
12480;SDS011;6305;48.398;11.762;2022-10-22T05:13:54;5.53;;;3.63;;
12480;SDS011;6305;48.398;11.762;2022-10-22T05:16:22;7.82;;;3.90;;
12480;SDS011;6305;48.398;11.762;2022-10-22T05:18:49;6.30;;;3.65;;
12480;SDS011;6305;48.398;11.762;2022-10-22T05:21:17;5.32;;;3.67;;
12480;SDS011;6305;48.398;11.762;2022-10-22T05:23:47;5.78;;;3.60;;
12480;SDS011;6305;48.398;11.762;2022-10-22T05:26:15;5.43;;;3.60;;
12480;SDS011;6305;48.398;11.762;2022-10-22T05:28:43;5.32;;;3.25;;
12480;SDS011;6305;48.398;11.762;2022-10-22T05:31:11;4.97;;;3.13;;
12480;SDS011;6305;48.398;11.762;2022-10-22T05:33:38;7.45;;;3.42;;
12480;SDS011;6305;48.398;11.762;2022-10-22T05:36:07;4.20;;;3.20;;
12480;SDS011;6305;48.398;11.762;2022-10-22T05:38:36;4.47;;;2.80;;
12480;SDS011;6305;48.398;11.762;2022-10-22T05:41:05;5.68;;;3.03;;
12480;SDS011;6305;48.398;11.762;2022-10-22T05:43:34;6.63;;;3.30;;
12480;SDS011;6305;48.398;11.762;2022-10-22T05:46:01;5.53;;;2.72;;
12480;SDS011;6305;48.398;11.762;2022-10-22T05:48:30;6.55;;;3.30;;
12480;SDS011;6305;48.398;11.762;2022-10-22T05:51:00;4.75;;;3.20;;
12480;SDS011;6305;48.398;11.762;2022-10-22T05:53:28;4.35;;;2.85;;
12480;SDS011;6305;48.398;11.762;2022-10-22T05:55:58;5.03;;;3.33;;
12480;SDS011;6305;48.398;11.762;2022-10-22T05:58:27;5.60;;;2.88;;
12480;SDS011;6305;48.398;11.762;2022-10-22T06:00:54;5.25;;;2.58;;
12480;SDS011;6305;48.398;11.762;2022-10-22T06:03:25;5.18;;;3.03;;
12480;SDS011;6305;48.398;11.762;2022-10-22T06:05:55;8.07;;;3.88;;
12480;SDS011;6305;48.398;11.762;2022-10-22T06:08:22;6.80;;;4.15;;
12480;SDS011;6305;48.398;11.762;2022-10-22T06:10:49;8.70;;;4.13;;
12480;SDS011;6305;48.398;11.762;2022-10-22T06:13:16;4.93;;;3.25;;
12480;SDS011;6305;48.398;11.762;2022-10-22T06:15:44;4.50;;;2.95;;
12480;SDS011;6305;48.398;11.762;2022-10-22T06:18:11;6.60;;;3.30;;
12480;SDS011;6305;48.398;11.762;2022-10-22T06:20:38;6.40;;;3.17;;
12480;SDS011;6305;48.398;11.762;2022-10-22T06:23:07;4.63;;;2.85;;
12480;SDS011;6305;48.398;11.762;2022-10-22T06:25:34;6.05;;;3.97;;
12480;SDS011;6305;48.398;11.762;2022-10-22T06:28:00;7.05;;;4.57;;
12480;SDS011;6305;48.398;11.762;2022-10-22T06:30:27;7.47;;;4.85;;
12480;SDS011;6305;48.398;11.762;2022-10-22T06:32:56;8.98;;;6.72;;
12480;SDS011;6305;48.398;11.762;2022-10-22T06:35:22;7.93;;;5.43;;
12480;SDS011;6305;48.398;11.762;2022-10-22T06:37:49;6.68;;;4.38;;
12480;SDS011;6305;48.398;11.762;2022-10-22T06:40:18;6.43;;;4.72;;
12480;SDS011;6305;48.398;11.762;2022-10-22T06:42:45;7.20;;;5.07;;
12480;SDS011;6305;48.398;11.762;2022-10-22T06:45:12;9.00;;;4.80;;
12480;SDS011;6305;48.398;11.762;2022-10-22T06:47:39;6.45;;;4.15;;
12480;SDS011;6305;48.398;11.762;2022-10-22T06:53:06;6.85;;;3.47;;
12480;SDS011;6305;48.398;11.762;2022-10-22T06:55:35;6.72;;;3.53;;
12480;SDS011;6305;48.398;11.762;2022-10-22T06:58:02;6.35;;;4.10;;
12480;SDS011;6305;48.398;11.762;2022-10-22T07:00:31;7.18;;;3.97;;
12480;SDS011;6305;48.398;11.762;2022-10-22T07:02:58;7.45;;;4.93;;
12480;SDS011;6305;48.398;11.762;2022-10-22T07:05:24;7.68;;;4.30;;
12480;SDS011;6305;48.398;11.762;2022-10-22T07:07:51;6.90;;;4.68;;
12480;SDS011;6305;48.398;11.762;2022-10-22T07:10:19;7.43;;;4.63;;
12480;SDS011;6305;48.398;11.762;2022-10-22T07:12:49;5.50;;;3.58;;
12480;SDS011;6305;48.398;11.762;2022-10-22T07:15:16;6.65;;;3.80;;
12480;SDS011;6305;48.398;11.762;2022-10-22T07:17:42;6.32;;;3.30;;
12480;SDS011;6305;48.398;11.762;2022-10-22T07:20:10;6.55;;;3.33;;
12480;SDS011;6305;48.398;11.762;2022-10-22T07:22:37;6.90;;;3.75;;
12480;SDS011;6305;48.398;11.762;2022-10-22T07:25:04;6.50;;;4.00;;
12480;SDS011;6305;48.398;11.762;2022-10-22T07:27:32;5.07;;;3.38;;
12480;SDS011;6305;48.398;11.762;2022-10-22T07:29:59;6.43;;;3.60;;
12480;SDS011;6305;48.398;11.762;2022-10-22T07:32:26;5.68;;;3.47;;
12480;SDS011;6305;48.398;11.762;2022-10-22T07:34:53;6.15;;;3.35;;
12480;SDS011;6305;48.398;11.762;2022-10-22T07:37:20;4.40;;;3.47;;
12480;SDS011;6305;48.398;11.762;2022-10-22T07:39:47;4.57;;;2.95;;
12480;SDS011;6305;48.398;11.762;2022-10-22T07:42:14;7.70;;;3.30;;
12480;SDS011;6305;48.398;11.762;2022-10-22T07:44:45;6.18;;;4.00;;
12480;SDS011;6305;48.398;11.762;2022-10-22T07:47:12;4.15;;;3.30;;
12480;SDS011;6305;48.398;11.762;2022-10-22T07:49:38;7.82;;;4.55;;
12480;SDS011;6305;48.398;11.762;2022-10-22T07:52:05;4.93;;;4.07;;
12480;SDS011;6305;48.398;11.762;2022-10-22T07:54:32;6.10;;;4.80;;
12480;SDS011;6305;48.398;11.762;2022-10-22T07:56:59;4.82;;;3.58;;
12480;SDS011;6305;48.398;11.762;2022-10-22T07:59:26;6.20;;;3.33;;
12480;SDS011;6305;48.398;11.762;2022-10-22T08:01:54;4.50;;;3.20;;
12480;SDS011;6305;48.398;11.762;2022-10-22T08:04:21;4.10;;;3.22;;
12480;SDS011;6305;48.398;11.762;2022-10-22T08:06:47;4.80;;;2.63;;
12480;SDS011;6305;48.398;11.762;2022-10-22T08:09:14;2.33;;;2.13;;
12480;SDS011;6305;48.398;11.762;2022-10-22T08:11:41;3.15;;;2.38;;
12480;SDS011;6305;48.398;11.762;2022-10-22T08:14:13;5.28;;;2.97;;
12480;SDS011;6305;48.398;11.762;2022-10-22T08:16:42;3.35;;;1.65;;
12480;SDS011;6305;48.398;11.762;2022-10-22T08:19:15;2.88;;;1.40;;
12480;SDS011;6305;48.398;11.762;2022-10-22T08:21:46;5.03;;;1.48;;
12480;SDS011;6305;48.398;11.762;2022-10-22T08:24:41;2.83;;;1.55;;
12480;SDS011;6305;48.398;11.762;2022-10-22T08:27:18;2.55;;;2.20;;
12480;SDS011;6305;48.398;11.762;2022-10-22T08:29:50;2.30;;;1.60;;
12480;SDS011;6305;48.398;11.762;2022-10-22T08:32:25;2.20;;;1.95;;
12480;SDS011;6305;48.398;11.762;2022-10-22T08:34:58;5.28;;;2.13;;
12480;SDS011;6305;48.398;11.762;2022-10-22T08:37:25;1.50;;;1.40;;
12480;SDS011;6305;48.398;11.762;2022-10-22T08:39:51;2.08;;;1.27;;
12480;SDS011;6305;48.398;11.762;2022-10-22T08:45:11;1.70;;;1.60;;
12480;SDS011;6305;48.398;11.762;2022-10-22T08:47:46;1.52;;;1.40;;
12480;SDS011;6305;48.398;11.762;2022-10-22T08:50:29;3.33;;;2.65;;
12480;SDS011;6305;48.398;11.762;2022-10-22T08:52:58;3.45;;;2.25;;
12480;SDS011;6305;48.398;11.762;2022-10-22T08:55:29;2.75;;;1.33;;
12480;SDS011;6305;48.398;11.762;2022-10-22T08:57:58;1.73;;;1.17;;
12480;SDS011;6305;48.398;11.762;2022-10-22T09:00:32;1.30;;;1.20;;
12480;SDS011;6305;48.398;11.762;2022-10-22T09:03:05;3.67;;;1.35;;
12480;SDS011;6305;48.398;11.762;2022-10-22T09:09:14;1.27;;;1.13;;
12480;SDS011;6305;48.398;11.762;2022-10-22T09:11:55;3.15;;;1.30;;
12480;SDS011;6305;48.398;11.762;2022-10-22T09:14:28;1.58;;;1.08;;
12480;SDS011;6305;48.398;11.762;2022-10-22T09:17:04;1.30;;;1.00;;
12480;SDS011;6305;48.398;11.762;2022-10-22T09:19:52;1.10;;;1.00;;
12480;SDS011;6305;48.398;11.762;2022-10-22T09:22:36;2.55;;;0.90;;
12480;SDS011;6305;48.398;11.762;2022-10-22T09:25:22;1.98;;;1.00;;
12480;SDS011;6305;48.398;11.762;2022-10-22T09:30:43;1.42;;;1.10;;
12480;SDS011;6305;48.398;11.762;2022-10-22T09:33:22;1.13;;;1.00;;
12480;SDS011;6305;48.398;11.762;2022-10-22T09:35:52;0.90;;;0.90;;
12480;SDS011;6305;48.398;11.762;2022-10-22T09:38:35;2.53;;;1.00;;
12480;SDS011;6305;48.398;11.762;2022-10-22T09:41:12;1.42;;;0.95;;
12480;SDS011;6305;48.398;11.762;2022-10-22T09:43:47;2.53;;;1.00;;
12480;SDS011;6305;48.398;11.762;2022-10-22T09:46:26;3.88;;;1.00;;
12480;SDS011;6305;48.398;11.762;2022-10-22T09:49:18;1.65;;;0.85;;
12480;SDS011;6305;48.398;11.762;2022-10-22T09:52:06;4.50;;;0.80;;
12480;SDS011;6305;48.398;11.762;2022-10-22T09:55:52;1.13;;;0.95;;
12480;SDS011;6305;48.398;11.762;2022-10-22T09:58:25;2.92;;;0.77;;
12480;SDS011;6305;48.398;11.762;2022-10-22T10:00:57;0.80;;;0.80;;
12480;SDS011;6305;48.398;11.762;2022-10-22T10:03:31;1.67;;;0.80;;
12480;SDS011;6305;48.398;11.762;2022-10-22T10:06:07;0.63;;;0.63;;
12480;SDS011;6305;48.398;11.762;2022-10-22T10:08:39;1.83;;;0.88;;
12480;SDS011;6305;48.398;11.762;2022-10-22T10:11:09;2.05;;;0.98;;
12480;SDS011;6305;48.398;11.762;2022-10-22T10:13:47;1.95;;;0.80;;
12480;SDS011;6305;48.398;11.762;2022-10-22T10:16:23;1.85;;;0.70;;
12480;SDS011;6305;48.398;11.762;2022-10-22T10:19:00;2.35;;;0.80;;
12480;SDS011;6305;48.398;11.762;2022-10-22T10:21:41;2.65;;;0.95;;
12480;SDS011;6305;48.398;11.762;2022-10-22T10:24:17;1.17;;;0.85;;
12480;SDS011;6305;48.398;11.762;2022-10-22T10:27:07;3.40;;;0.80;;
12480;SDS011;6305;48.398;11.762;2022-10-22T10:29:57;2.95;;;0.95;;
12480;SDS011;6305;48.398;11.762;2022-10-22T10:32:38;3.72;;;0.77;;
12480;SDS011;6305;48.398;11.762;2022-10-22T10:35:35;1.85;;;1.00;;
12480;SDS011;6305;48.398;11.762;2022-10-22T10:38:18;3.35;;;0.90;;
12480;SDS011;6305;48.398;11.762;2022-10-22T10:41:01;0.90;;;0.75;;
12480;SDS011;6305;48.398;11.762;2022-10-22T10:43:37;1.38;;;0.90;;
12480;SDS011;6305;48.398;11.762;2022-10-22T10:46:16;0.70;;;0.70;;
12480;SDS011;6305;48.398;11.762;2022-10-22T10:48:52;1.35;;;0.90;;
12480;SDS011;6305;48.398;11.762;2022-10-22T10:51:30;1.73;;;0.90;;
12480;SDS011;6305;48.398;11.762;2022-10-22T10:54:15;1.23;;;0.75;;
12480;SDS011;6305;48.398;11.762;2022-10-22T10:56:50;1.98;;;0.93;;
12480;SDS011;6305;48.398;11.762;2022-10-22T10:59:23;1.10;;;1.00;;
12480;SDS011;6305;48.398;11.762;2022-10-22T11:02:16;1.77;;;0.93;;
12480;SDS011;6305;48.398;11.762;2022-10-22T11:05:10;2.75;;;1.15;;
12480;SDS011;6305;48.398;11.762;2022-10-22T11:07:47;2.97;;;1.10;;
12480;SDS011;6305;48.398;11.762;2022-10-22T11:10:19;1.42;;;1.02;;
12480;SDS011;6305;48.398;11.762;2022-10-22T11:12:54;2.55;;;1.33;;
12480;SDS011;6305;48.398;11.762;2022-10-22T11:15:27;3.55;;;1.38;;
12480;SDS011;6305;48.398;11.762;2022-10-22T11:18:00;2.58;;;1.30;;
12480;SDS011;6305;48.398;11.762;2022-10-22T11:20:34;2.58;;;1.10;;
12480;SDS011;6305;48.398;11.762;2022-10-22T11:23:10;4.55;;;1.27;;
12480;SDS011;6305;48.398;11.762;2022-10-22T11:25:44;1.73;;;1.20;;
12480;SDS011;6305;48.398;11.762;2022-10-22T11:28:13;1.52;;;1.00;;
12480;SDS011;6305;48.398;11.762;2022-10-22T11:30:46;1.83;;;1.00;;
12480;SDS011;6305;48.398;11.762;2022-10-22T11:33:20;1.52;;;0.80;;
12480;SDS011;6305;48.398;11.762;2022-10-22T11:35:49;3.25;;;1.27;;
12480;SDS011;6305;48.398;11.762;2022-10-22T11:38:20;2.00;;;1.20;;
12480;SDS011;6305;48.398;11.762;2022-10-22T11:40:51;1.88;;;1.00;;
12480;SDS011;6305;48.398;11.762;2022-10-22T11:43:26;1.15;;;1.00;;
12480;SDS011;6305;48.398;11.762;2022-10-22T11:45:56;1.30;;;1.08;;
12480;SDS011;6305;48.398;11.762;2022-10-22T11:48:33;1.00;;;0.90;;
12480;SDS011;6305;48.398;11.762;2022-10-22T11:51:02;1.00;;;0.80;;
12480;SDS011;6305;48.398;11.762;2022-10-22T11:53:53;1.65;;;0.95;;
12480;SDS011;6305;48.398;11.762;2022-10-22T11:56:24;1.73;;;1.08;;
12480;SDS011;6305;48.398;11.762;2022-10-22T11:58:54;1.10;;;1.00;;
12480;SDS011;6305;48.398;11.762;2022-10-22T12:01:23;3.17;;;1.00;;
12480;SDS011;6305;48.398;11.762;2022-10-22T12:04:13;1.40;;;1.15;;
12480;SDS011;6305;48.398;11.762;2022-10-22T12:06:55;1.92;;;1.10;;
12480;SDS011;6305;48.398;11.762;2022-10-22T12:09:23;1.30;;;0.95;;
12480;SDS011;6305;48.398;11.762;2022-10-22T12:11:59;1.67;;;1.08;;
12480;SDS011;6305;48.398;11.762;2022-10-22T12:14:31;1.10;;;0.90;;
12480;SDS011;6305;48.398;11.762;2022-10-22T12:17:07;1.38;;;1.05;;
12480;SDS011;6305;48.398;11.762;2022-10-22T12:19:41;2.13;;;1.08;;
12480;SDS011;6305;48.398;11.762;2022-10-22T12:22:12;1.73;;;0.90;;
12480;SDS011;6305;48.398;11.762;2022-10-22T12:24:43;1.10;;;1.00;;
12480;SDS011;6305;48.398;11.762;2022-10-22T12:27:15;1.13;;;1.00;;
12480;SDS011;6305;48.398;11.762;2022-10-22T12:29:44;2.33;;;1.08;;
12480;SDS011;6305;48.398;11.762;2022-10-22T12:32:11;1.38;;;0.95;;
12480;SDS011;6305;48.398;11.762;2022-10-22T12:34:48;2.35;;;0.90;;
12480;SDS011;6305;48.398;11.762;2022-10-22T12:37:18;1.58;;;0.98;;
12480;SDS011;6305;48.398;11.762;2022-10-22T12:39:45;1.00;;;0.90;;
12480;SDS011;6305;48.398;11.762;2022-10-22T12:42:15;2.35;;;1.33;;
12480;SDS011;6305;48.398;11.762;2022-10-22T12:44:47;3.10;;;0.90;;
12480;SDS011;6305;48.398;11.762;2022-10-22T12:47:24;2.55;;;1.00;;
12480;SDS011;6305;48.398;11.762;2022-10-22T12:50:13;0.98;;;0.80;;
12480;SDS011;6305;48.398;11.762;2022-10-22T12:52:42;2.60;;;0.98;;
12480;SDS011;6305;48.398;11.762;2022-10-22T12:58:05;0.80;;;0.80;;
12480;SDS011;6305;48.398;11.762;2022-10-22T13:00:32;0.75;;;0.60;;
12480;SDS011;6305;48.398;11.762;2022-10-22T13:03:01;2.00;;;0.98;;
12480;SDS011;6305;48.398;11.762;2022-10-22T13:05:32;1.75;;;0.77;;
12480;SDS011;6305;48.398;11.762;2022-10-22T13:08:04;1.73;;;0.90;;
12480;SDS011;6305;48.398;11.762;2022-10-22T13:10:35;2.05;;;1.10;;
12480;SDS011;6305;48.398;11.762;2022-10-22T13:13:04;1.48;;;0.90;;
12480;SDS011;6305;48.398;11.762;2022-10-22T13:15:33;1.35;;;0.90;;
12480;SDS011;6305;48.398;11.762;2022-10-22T13:18:02;1.48;;;0.85;;
12480;SDS011;6305;48.398;11.762;2022-10-22T13:20:33;2.40;;;0.80;;
12480;SDS011;6305;48.398;11.762;2022-10-22T13:23:01;3.33;;;0.80;;
12480;SDS011;6305;48.398;11.762;2022-10-22T13:25:30;0.77;;;0.75;;
12480;SDS011;6305;48.398;11.762;2022-10-22T13:27:58;3.97;;;0.80;;
12480;SDS011;6305;48.398;11.762;2022-10-22T13:30:28;1.05;;;0.80;;
12480;SDS011;6305;48.398;11.762;2022-10-22T13:32:57;2.38;;;0.70;;
12480;SDS011;6305;48.398;11.762;2022-10-22T13:35:26;1.02;;;0.80;;
12480;SDS011;6305;48.398;11.762;2022-10-22T13:37:57;3.90;;;0.75;;
12480;SDS011;6305;48.398;11.762;2022-10-22T13:40:24;2.45;;;0.90;;
12480;SDS011;6305;48.398;11.762;2022-10-22T13:42:51;1.08;;;0.85;;
12480;SDS011;6305;48.398;11.762;2022-10-22T13:45:18;1.52;;;0.80;;
12480;SDS011;6305;48.398;11.762;2022-10-22T13:47:47;0.90;;;0.60;;
12480;SDS011;6305;48.398;11.762;2022-10-22T13:50:16;1.95;;;0.80;;
12480;SDS011;6305;48.398;11.762;2022-10-22T13:52:45;0.70;;;0.70;;
12480;SDS011;6305;48.398;11.762;2022-10-22T13:55:16;1.55;;;0.95;;
12480;SDS011;6305;48.398;11.762;2022-10-22T13:57:44;1.75;;;1.02;;
12480;SDS011;6305;48.398;11.762;2022-10-22T14:00:12;2.80;;;0.70;;
12480;SDS011;6305;48.398;11.762;2022-10-22T14:02:42;0.90;;;0.80;;
12480;SDS011;6305;48.398;11.762;2022-10-22T14:05:11;1.92;;;0.80;;
12480;SDS011;6305;48.398;11.762;2022-10-22T14:07:39;1.10;;;0.70;;
12480;SDS011;6305;48.398;11.762;2022-10-22T14:10:12;2.97;;;0.95;;
12480;SDS011;6305;48.398;11.762;2022-10-22T14:12:42;1.98;;;0.80;;
12480;SDS011;6305;48.398;11.762;2022-10-22T14:15:10;1.67;;;1.13;;
12480;SDS011;6305;48.398;11.762;2022-10-22T14:17:39;1.95;;;1.00;;
12480;SDS011;6305;48.398;11.762;2022-10-22T14:20:09;1.17;;;0.80;;
12480;SDS011;6305;48.398;11.762;2022-10-22T14:22:39;1.45;;;0.73;;
12480;SDS011;6305;48.398;11.762;2022-10-22T14:25:08;4.07;;;0.90;;
12480;SDS011;6305;48.398;11.762;2022-10-22T14:27:39;0.88;;;0.77;;
12480;SDS011;6305;48.398;11.762;2022-10-22T14:30:06;1.10;;;0.90;;
12480;SDS011;6305;48.398;11.762;2022-10-22T14:32:34;1.30;;;1.13;;
12480;SDS011;6305;48.398;11.762;2022-10-22T14:35:01;4.43;;;1.08;;
12480;SDS011;6305;48.398;11.762;2022-10-22T14:37:28;1.02;;;0.77;;
12480;SDS011;6305;48.398;11.762;2022-10-22T14:39:54;1.20;;;0.90;;
12480;SDS011;6305;48.398;11.762;2022-10-22T14:42:25;1.83;;;0.85;;
12480;SDS011;6305;48.398;11.762;2022-10-22T14:44:54;1.92;;;0.80;;
12480;SDS011;6305;48.398;11.762;2022-10-22T14:47:21;1.63;;;1.17;;
12480;SDS011;6305;48.398;11.762;2022-10-22T14:49:48;2.63;;;0.90;;
12480;SDS011;6305;48.398;11.762;2022-10-22T14:52:15;0.82;;;0.77;;
12480;SDS011;6305;48.398;11.762;2022-10-22T14:54:42;0.82;;;0.80;;
12480;SDS011;6305;48.398;11.762;2022-10-22T14:57:09;1.63;;;0.70;;
12480;SDS011;6305;48.398;11.762;2022-10-22T14:59:38;1.02;;;0.85;;
12480;SDS011;6305;48.398;11.762;2022-10-22T15:02:09;1.00;;;0.90;;
12480;SDS011;6305;48.398;11.762;2022-10-22T15:04:37;0.82;;;0.80;;
12480;SDS011;6305;48.398;11.762;2022-10-22T15:07:04;3.70;;;0.90;;
12480;SDS011;6305;48.398;11.762;2022-10-22T15:09:31;1.83;;;0.90;;
12480;SDS011;6305;48.398;11.762;2022-10-22T15:11:58;2.15;;;0.98;;
12480;SDS011;6305;48.398;11.762;2022-10-22T15:14:25;2.15;;;1.20;;
12480;SDS011;6305;48.398;11.762;2022-10-22T15:16:52;3.50;;;1.23;;
12480;SDS011;6305;48.398;11.762;2022-10-22T15:19:20;1.55;;;1.00;;
12480;SDS011;6305;48.398;11.762;2022-10-22T15:21:47;2.30;;;1.10;;
12480;SDS011;6305;48.398;11.762;2022-10-22T15:24:14;2.63;;;1.00;;
12480;SDS011;6305;48.398;11.762;2022-10-22T15:26:40;6.97;;;1.23;;
12480;SDS011;6305;48.398;11.762;2022-10-22T15:29:07;2.03;;;1.30;;
12480;SDS011;6305;48.398;11.762;2022-10-22T15:31:47;1.95;;;1.40;;
12480;SDS011;6305;48.398;11.762;2022-10-22T15:34:21;3.67;;;1.80;;
12480;SDS011;6305;48.398;11.762;2022-10-22T15:36:50;2.47;;;1.60;;
12480;SDS011;6305;48.398;11.762;2022-10-22T15:39:18;2.03;;;1.45;;
12480;SDS011;6305;48.398;11.762;2022-10-22T15:41:45;7.28;;;2.60;;